Flight Track Log - Related Links

Times and Time Zones

All times are in EDT time to prevent confusion due to time zone crossing. See the TAM3180 flight status page for this flight to view local times or setup timezone preferences in your user account.

Time Position Orientation Groundspeed Altitude Reporting Facility
EDT Latitude Longitude Course Direction KTS MPH feet Rate Location/Type
Mon 12:07:27 AM -15.6440 -47.9730 17° North 336 387 11,600  Level FlightAware ADS-B
Mon 12:08:12 AM -15.5710 -47.9480 18° North 387 445 12,700 1,667 Climbing FlightAware ADS-B
Mon 12:08:57 AM -15.5030 -47.9260 17° North 389 448 14,100 1,906 Climbing FlightAware ADS-B
Mon 12:09:37 AM -15.4300 -47.9020 18° North 395 455 15,400 1,976 Climbing FlightAware ADS-B
Mon 12:10:22 AM -15.3490 -47.8750 18° North 398 458 16,900 1,642 Climbing FlightAware ADS-B
Mon 12:11:12 AM -15.2640 -47.8470 18° North 411 473 18,000 695 Climbing FlightAware ADS-B
Mon 12:11:57 AM -15.1900 -47.8240 17° North 411 473 18,000  Level FlightAware ADS-B
Mon 12:12:37 AM -15.1280 -47.8040 17° North 411 473 18,000  Level FlightAware ADS-B
Mon 12:13:27 AM -15.0510 -47.7800 17° North 411 473 18,000  Level FlightAware ADS-B
Mon 12:14:07 AM -14.9890 -47.7600 17° North 411 473 18,000  Level FlightAware ADS-B
Mon 12:14:47 AM -14.9270 -47.7410 16° North 411 473 18,000 598 Level FlightAware ADS-B
Mon 12:17:00 AM -14.7269 -47.6817 16° North  Level Estimated
Mon 12:18:00 AM -14.6366 -47.6550 16° North  Level Estimated
Mon 12:19:00 AM -14.5463 -47.6283 16° North  Level Estimated
Mon 12:20:00 AM -14.4560 -47.6016 16° North  Level Estimated
Mon 12:21:00 AM -14.3657 -47.5750 16° North  Level Estimated
Mon 12:22:00 AM -14.2754 -47.5484 16° North  Level Estimated
Mon 12:23:00 AM -14.1851 -47.5218 16° North  Level Estimated
Mon 12:24:00 AM -14.0947 -47.4952 16° North  Level Estimated
Mon 12:25:00 AM -14.0044 -47.4686 16° North  Level Estimated
Mon 12:26:00 AM -13.9141 -47.4421 16° North  Level Estimated
Mon 12:27:00 AM -13.8238 -47.4156 16° North  Level Estimated
Mon 12:28:00 AM -13.7335 -47.3891 16° North  Level Estimated
Mon 12:29:00 AM -13.6431 -47.3626 16° North  Level Estimated
Mon 12:30:00 AM -13.5528 -47.3361 16° North  Level Estimated
Mon 12:31:00 AM -13.4625 -47.3097 16° North  Level Estimated
Mon 12:32:00 AM -13.3722 -47.2833 16° North  Level Estimated
Mon 12:33:00 AM -13.2818 -47.2569 16° North  Level Estimated
Mon 12:34:00 AM -13.1915 -47.2305 16° North  Level Estimated
Mon 12:35:00 AM -13.1011 -47.2041 16° North  Level Estimated
Mon 12:36:00 AM -13.0108 -47.1778 16° North  Level Estimated
Mon 12:37:00 AM -12.9204 -47.1515 16° North  Level Estimated
Mon 12:38:00 AM -12.8301 -47.1252 16° North  Level Estimated
Mon 12:39:00 AM -12.7397 -47.0989 16° North  Level Estimated
Mon 12:40:00 AM -12.6494 -47.0726 16° North  Level Estimated
Mon 12:41:00 AM -12.5590 -47.0464 16° North  Level Estimated
Mon 12:42:00 AM -12.4687 -47.0201 16° North  Level Estimated
Mon 12:42:32 AM -11.4750 -46.7340 16° North 453 521 35,000  Level FlightAware ADS-B
Mon 12:43:12 AM -11.4060 -46.7160 14° North 453 521 35,000  Level FlightAware ADS-B
Mon 12:43:52 AM -11.5290 -46.7490 195° South 35,000  Level FlightAware ADS-B
Mon 12:45:17 AM -11.1380 -46.6370 16° North 457 526 35,000  Level FlightAware ADS-B
Mon 12:46:02 AM -11.0380 -46.6080 16° North 454 522 35,000  Level FlightAware ADS-B
Mon 12:46:42 AM -10.9640 -46.5870 16° North 452 520 35,000  Level FlightAware ADS-B
Mon 12:47:27 AM -10.8700 -46.5600 16° North 450 518 35,000  Level FlightAware ADS-B
Mon 12:48:07 AM -10.7900 -46.5370 16° North 448 516 35,000  Level FlightAware ADS-B
Mon 12:48:52 AM -10.7080 -46.5150 15° North 448 516 35,000  Level FlightAware ADS-B
Mon 12:49:32 AM -10.6400 -46.4960 15° North 448 516 35,000  Level FlightAware ADS-B
Mon 12:50:12 AM -10.5720 -46.4770 15° North 448 516 35,000  Level FlightAware ADS-B
Mon 12:50:52 AM -10.5040 -46.4590 15° North 448 516 35,000  Level FlightAware ADS-B
Mon 12:51:32 AM -10.4360 -46.4400 15° North 448 516 35,000  Level FlightAware ADS-B
Mon 12:52:22 AM -10.3510 -46.4170 15° North 448 516 35,000  Level FlightAware ADS-B
Mon 12:53:02 AM -10.2830 -46.3990 15° North 448 516 35,000  Level FlightAware ADS-B
Mon 12:53:42 AM -10.2150 -46.3800 15° North 448 516 35,000  Level FlightAware ADS-B
Mon 12:54:22 AM -10.1470 -46.3620 15° North 448 516 35,000  Level FlightAware ADS-B
Mon 12:55:03 AM -10.0780 -46.3430 15° North 448 516 35,000  Level FlightAware ADS-B
Mon 12:55:52 AM -9.9930 -46.3200 15° North 448 516 35,000  Level FlightAware ADS-B
Mon 12:56:32 AM -9.9250 -46.3010 15° North 448 516 35,000  Level FlightAware ADS-B
Mon 12:57:12 AM -9.8570 -46.2830 15° North 448 516 35,000  Level FlightAware ADS-B
Mon 12:57:52 AM -9.7890 -46.2640 15° North 448 516 35,000  Level FlightAware ADS-B
Mon 01:00:00 AM -9.6055 -46.2114 16° North  Level Estimated
Mon 01:01:00 AM -9.5195 -46.1868 16° North  Level Estimated
Mon 01:02:00 AM -9.4335 -46.1622 16° North  Level Estimated
Mon 01:03:00 AM -9.3475 -46.1376 16° North  Level Estimated
Mon 01:04:00 AM -9.2614 -46.1130 16° North  Level Estimated
Mon 01:05:00 AM -9.1754 -46.0885 16° North  Level Estimated
Mon 01:06:00 AM -9.0946 -46.0654 16° North  Level Estimated
Mon 01:07:00 AM -9.0139 -46.0424 16° North  Level Estimated
Mon 01:08:00 AM -8.9331 -46.0193 16° North  Level Estimated
Mon 01:09:00 AM -8.8523 -45.9963 16° North  Level Estimated
Mon 01:10:00 AM -8.7715 -45.9733 16° North  Level Estimated
Mon 01:11:00 AM -8.6907 -45.9503 16° North  Level Estimated
Mon 01:12:00 AM -8.6099 -45.9273 16° North  Level Estimated
Mon 01:13:00 AM -8.5291 -45.9043 16° North  Level Estimated
Mon 01:14:00 AM -8.4483 -45.8813 16° North  Level Estimated
Mon 01:15:00 AM -8.3676 -45.8583 16° North  Level Estimated
Mon 01:16:00 AM -8.2868 -45.8354 16° North  Level Estimated
Mon 01:17:00 AM -8.2060 -45.8124 16° North  Level Estimated
Mon 01:18:00 AM -8.1252 -45.7895 16° North  Level Estimated
Mon 01:19:00 AM -8.0444 -45.7665 16° North  Level Estimated
Mon 01:20:00 AM -7.9636 -45.7436 16° North  Level Estimated
Mon 01:21:00 AM -7.8828 -45.7207 16° North  Level Estimated
Mon 01:22:00 AM -7.8020 -45.6978 16° North  Level Estimated
Mon 01:23:00 AM -7.7212 -45.6749 16° North  Level Estimated
Mon 01:24:00 AM -7.6404 -45.6520 16° North  Level Estimated
Mon 01:25:00 AM -7.5596 -45.6292 16° North  Level Estimated
Mon 01:26:00 AM -7.4788 -45.6063 16° North  Level Estimated
Mon 01:27:00 AM -7.3980 -45.5834 16° North  Level Estimated
Mon 01:28:00 AM -7.3172 -45.5606 16° North  Level Estimated
Mon 01:28:42 AM -5.8820 -45.1520 16° North 450 518 35,000  Level FlightAware ADS-B
Mon 01:29:00 AM -7.2364 -45.5377 16° North  Level Estimated
Mon 01:29:27 AM -5.8000 -45.1290 16° North 450 518 35,000  Level FlightAware ADS-B
Mon 01:30:12 AM -5.6950 -45.0990 16° North 454 522 35,000  Level FlightAware ADS-B
Mon 01:30:47 AM -5.6290 -45.0810 15° North 454 522 35,000  Level FlightAware ADS-B
Mon 01:31:27 AM -5.5600 -45.0630 15° North 454 522 35,000  Level FlightAware ADS-B
Mon 01:32:12 AM -5.4510 -45.0320 16° North 454 522 35,000  Level FlightAware ADS-B
Mon 01:34:00 AM -5.3055 -44.9913 16° North  Level Estimated
Mon 01:34:02 AM -5.2280 -44.9690 16° North 456 525 35,000  Level FlightAware ADS-B
Mon 01:34:42 AM -5.1510 -44.9470 16° North 452 520 35,000  Level FlightAware ADS-B
Mon 01:35:37 AM -5.0350 -44.9150 15° North 452 520 35,000 -735 Level FlightAware ADS-B
Mon 01:38:00 AM -4.8423 -44.8613 16° North  Level Estimated
Mon 01:39:00 AM -4.7614 -44.8387 16° North  Level Estimated
Mon 01:40:00 AM -4.6805 -44.8162 16° North  Level Estimated
Mon 01:41:00 AM -4.5997 -44.7937 16° North  Level Estimated
Mon 01:42:00 AM -4.5188 -44.7712 16° North  Level Estimated
Mon 01:42:27 AM -4.2030 -44.6840 16° North 462 532 29,300  Level FlightAware ADS-B
Mon 01:43:12 AM -4.1110 -44.6580 16° North 465 535 27,100 -3,391 Descending FlightAware ADS-B
Mon 01:44:22 AM -3.9610 -44.6170 15° North 456 525 22,800 -3,273 Descending FlightAware ADS-B
Mon 01:45:02 AM -3.8870 -44.5960 16° North 441 507 21,100 -2,550 Descending FlightAware ADS-B
Mon 01:45:42 AM -3.8090 -44.5740 16° North 430 495 19,400 -1,341 Descending FlightAware ADS-B
Mon 01:46:27 AM -3.7240 -44.5510 15° North 415 478 19,200 -1,412 Descending FlightAware ADS-B
Mon 01:47:07 AM -3.6590 -44.5330 15° North 372 428 17,400 -2,880 Descending FlightAware ADS-B
Mon 01:48:07 AM -3.5470 -44.5010 16° North 376 433 14,400 -1,945 Descending FlightAware ADS-B
Mon 01:49:32 AM -3.4230 -44.4670 15° North 374 430 12,700 -816 Descending FlightAware ADS-B
Mon 01:50:12 AM -3.3660 -44.4520 15° North 374 430 12,700  Level FlightAware ADS-B
Mon 01:50:52 AM -3.3100 -44.4370 15° North 374 430 12,700  Level FlightAware ADS-B
Mon 01:53:00 AM -3.1376 -44.3887 16° North  Level Estimated
Mon 01:54:00 AM -3.0568 -44.3661 16° North  Level Estimated
Mon 01:55:00 AM -2.9759 -44.3434 16° North  Level Estimated
Mon 01:56:00 AM -2.8951 -44.3208 16° North  Level Estimated
Mon 01:57:00 AM -2.8143 -44.2982 16° North  Level Estimated
Mon 01:58:00 AM -2.7334 -44.2756 16° North  Level Estimated
Mon 01:59:00 AM -2.6526 -44.2529 16° North  Level Estimated
Mon 02:00:00 AM -2.5854 -44.2341 16° North  Level Estimated
Mon 02:01:00 AM -2.5854 -44.2341 135° Southeast  Level Estimated
Mon 02:02:00 AM -2.5854 -44.2341 135° Southeast  Level Estimated
Mon 02:03:00 AM -2.5854 -44.2341 135° Southeast  Level Estimated
Mon 02:04:00 AM -2.5854 -44.2341 135° Southeast  Level Estimated
Mon 02:05:00 AM -2.5854 -44.2341 135° Southeast  Level Estimated
Mon 02:06:00 AM -2.5854 -44.2341 135° Southeast  Level Estimated
Mon 02:07:00 AM -2.5854 -44.2341 135° Southeast  Level Estimated
Mon 02:08:00 AM -2.5854 -44.2341 135° Southeast  Level Estimated
Mon 02:09:00 AM -2.5854 -44.2341 135° Southeast  Level Estimated
Mon 02:10:00 AM -2.5854 -44.2341 135° Southeast  Level Estimated
Mon 02:11:00 AM -2.5854 -44.2341 135° Southeast  Level Estimated
Mon 02:12:00 AM -2.5854 -44.2341 135° Southeast  Level Estimated
Mon 02:13:00 AM -2.5854 -44.2341 135° Southeast  Level Estimated
Mon 02:14:00 AM -2.5854 -44.2341 135° Southeast  Level Estimated
Mon 02:15:00 AM -2.5854 -44.2341 135° Southeast  Level Estimated
Mon 02:16:00 AM -2.5854 -44.2341 135° Southeast  Level Estimated
Mon 02:17:00 AM -2.5854 -44.2341 135° Southeast  Level Estimated
Mon 02:18:00 AM -2.5854 -44.2341 135° Southeast  Level Estimated
Mon 02:19:00 AM -2.5854 -44.2341 135° Southeast  Level Estimated
Mon 02:20:00 AM -2.5854 -44.2341 135° Southeast  Level Estimated
Mon 02:21:00 AM -2.5854 -44.2341 135° Southeast  Level Estimated
Mon 02:22:00 AM -2.5854 -44.2341 135° Southeast  Level Estimated
Mon 02:23:00 AM -2.5854 -44.2341 135° Southeast  Level Estimated
Mon 02:24:00 AM -2.5854 -44.2341 135° Southeast  Level Estimated
Mon 02:25:00 AM -2.5854 -44.2341 135° Southeast  Level Estimated
Mon 02:26:00 AM -2.5854 -44.2341 135° Southeast  Level Estimated
Mon 02:27:00 AM -2.5854 -44.2341 135° Southeast  Level Estimated
Mon 02:28:00 AM -2.5854 -44.2341 135° Southeast  Level Estimated
Mon 02:29:00 AM -2.5854 -44.2341 135° Southeast  Level Estimated
Mon 02:30:00 AM -2.5854 -44.2341 135° Southeast  Level Estimated
Mon 02:31:00 AM -2.5854 -44.2341 135° Southeast  Level Estimated
Mon 02:32:00 AM -2.5854 -44.2341 135° Southeast  Level Estimated
Mon 02:33:00 AM -2.5854 -44.2341 135° Southeast  Level Estimated
Mon 02:34:00 AM -2.5854 -44.2341 135° Southeast  Level Estimated
Mon 02:35:00 AM -2.5854 -44.2341 135° Southeast  Level Estimated
Mon 02:36:00 AM -2.5854 -44.2341 135° Southeast  Level Estimated
Mon 02:37:00 AM -2.5854 -44.2341 135° Southeast  Level Estimated
Mon 02:38:00 AM -2.5854 -44.2341 135° Southeast  Level Estimated
Mon 02:39:00 AM -2.5854 -44.2341 135° Southeast  Level Estimated
Mon 02:40:00 AM -2.5854 -44.2341 135° Southeast  Level Estimated
Mon 02:41:00 AM -2.5854 -44.2341 135° Southeast  Level Estimated
Mon 02:42:00 AM -2.5854 -44.2341 135° Southeast  Level Estimated
Mon 02:43:00 AM -2.5854 -44.2341 135° Southeast  Level Estimated
Mon 02:44:00 AM -2.5854 -44.2341 135° Southeast  Level Estimated
Mon 02:45:00 AM -2.5854 -44.2341 135° Southeast  Level Estimated
Mon 02:46:00 AM -2.5854 -44.2341 135° Southeast  Level Estimated
Mon 02:47:00 AM -2.5854 -44.2341 135° Southeast  Level Estimated
Mon 02:48:00 AM -2.5854 -44.2341 135° Southeast  Level Estimated
Mon 02:49:00 AM -2.5854 -44.2341 135° Southeast  Level Estimated
Mon 02:50:00 AM -2.5854 -44.2341 135° Southeast  Level Estimated
Mon 02:51:00 AM -2.5854 -44.2341 135° Southeast  Level Estimated
Mon 02:52:00 AM -2.5854 -44.2341 135° Southeast  Level Estimated
Mon 02:53:00 AM -2.5854 -44.2341 135° Southeast  Level Estimated
Mon 02:54:00 AM -2.5854 -44.2341 135° Southeast  Level Estimated
Mon 02:55:00 AM -2.5854 -44.2341 135° Southeast  Level Estimated
Mon 02:56:00 AM -2.5854 -44.2341 135° Southeast  Level Estimated
Mon 02:57:00 AM -2.5854 -44.2341 135° Southeast  Level Estimated
Mon 02:58:00 AM -2.5854 -44.2341 135° Southeast  Level Estimated
Mon 02:59:00 AM -2.5854 -44.2341 135° Southeast  Level Estimated
Mon 03:00:00 AM -2.5854 -44.2341 135° Southeast  Level Estimated
Mon 03:01:00 AM -2.5854 -44.2341 135° Southeast  Level Estimated
Mon 03:02:00 AM -2.5854 -44.2341 135° Southeast  Level Estimated

Login

Don't have an account? Register now (free) for customized features, flight alerts, and more!